sensor_id;sensor_type;location;lat;lon;timestamp;P1;durP1;ratioP1;P2;durP2;ratioP2
77055;SDS011;67471;44.918;8.614;2023-02-19T00:01:40;23.88;;;14.48;;
77055;SDS011;67471;44.918;8.614;2023-02-19T00:04:46;24.77;;;14.70;;
77055;SDS011;67471;44.918;8.614;2023-02-19T00:07:50;23.13;;;13.45;;
77055;SDS011;67471;44.918;8.614;2023-02-19T00:11:00;20.17;;;13.27;;
77055;SDS011;67471;44.918;8.614;2023-02-19T00:14:09;20.80;;;13.52;;
77055;SDS011;67471;44.918;8.614;2023-02-19T00:17:16;29.45;;;15.73;;
77055;SDS011;67471;44.918;8.614;2023-02-19T00:20:20;21.00;;;12.98;;
77055;SDS011;67471;44.918;8.614;2023-02-19T00:23:24;24.83;;;14.43;;
77055;SDS011;67471;44.918;8.614;2023-02-19T00:26:29;24.00;;;14.10;;
77055;SDS011;67471;44.918;8.614;2023-02-19T00:29:32;20.58;;;14.10;;
77055;SDS011;67471;44.918;8.614;2023-02-19T00:32:36;25.63;;;15.25;;
77055;SDS011;67471;44.918;8.614;2023-02-19T00:35:40;25.27;;;14.98;;
77055;SDS011;67471;44.918;8.614;2023-02-19T00:38:44;24.67;;;14.27;;
77055;SDS011;67471;44.918;8.614;2023-02-19T00:41:48;26.17;;;13.98;;
77055;SDS011;67471;44.918;8.614;2023-02-19T00:44:52;22.15;;;14.43;;
77055;SDS011;67471;44.918;8.614;2023-02-19T00:47:56;21.30;;;13.98;;
77055;SDS011;67471;44.918;8.614;2023-02-19T00:51:01;23.60;;;13.65;;
77055;SDS011;67471;44.918;8.614;2023-02-19T00:54:04;22.13;;;13.23;;
77055;SDS011;67471;44.918;8.614;2023-02-19T00:57:09;22.40;;;13.88;;
77055;SDS011;67471;44.918;8.614;2023-02-19T01:00:12;18.80;;;12.32;;
77055;SDS011;67471;44.918;8.614;2023-02-19T01:03:16;25.35;;;13.73;;
77055;SDS011;67471;44.918;8.614;2023-02-19T01:06:20;22.73;;;12.65;;
77055;SDS011;67471;44.918;8.614;2023-02-19T01:09:24;23.30;;;13.32;;
77055;SDS011;67471;44.918;8.614;2023-02-19T01:12:27;21.42;;;13.80;;
77055;SDS011;67471;44.918;8.614;2023-02-19T01:15:32;25.85;;;13.70;;
77055;SDS011;67471;44.918;8.614;2023-02-19T01:18:36;21.20;;;13.18;;
77055;SDS011;67471;44.918;8.614;2023-02-19T01:21:40;18.48;;;12.35;;
77055;SDS011;67471;44.918;8.614;2023-02-19T01:24:43;21.90;;;12.50;;
77055;SDS011;67471;44.918;8.614;2023-02-19T01:27:47;20.92;;;12.32;;
77055;SDS011;67471;44.918;8.614;2023-02-19T01:30:53;24.02;;;14.35;;
77055;SDS011;67471;44.918;8.614;2023-02-19T01:33:58;24.17;;;13.20;;
77055;SDS011;67471;44.918;8.614;2023-02-19T01:37:03;26.13;;;14.63;;
77055;SDS011;67471;44.918;8.614;2023-02-19T01:40:08;19.20;;;12.00;;
77055;SDS011;67471;44.918;8.614;2023-02-19T01:43:15;22.65;;;13.30;;
77055;SDS011;67471;44.918;8.614;2023-02-19T01:46:18;17.55;;;13.02;;
77055;SDS011;67471;44.918;8.614;2023-02-19T01:52:57;24.60;;;13.77;;
77055;SDS011;67471;44.918;8.614;2023-02-19T01:56:02;23.30;;;13.32;;
77055;SDS011;67471;44.918;8.614;2023-02-19T01:59:07;24.45;;;13.13;;
77055;SDS011;67471;44.918;8.614;2023-02-19T02:02:11;30.67;;;14.13;;
77055;SDS011;67471;44.918;8.614;2023-02-19T02:05:28;21.90;;;12.55;;
77055;SDS011;67471;44.918;8.614;2023-02-19T02:08:40;23.60;;;12.23;;
77055;SDS011;67471;44.918;8.614;2023-02-19T02:12:02;20.13;;;12.68;;
77055;SDS011;67471;44.918;8.614;2023-02-19T02:15:06;22.42;;;12.75;;
77055;SDS011;67471;44.918;8.614;2023-02-19T02:18:23;21.30;;;13.00;;
77055;SDS011;67471;44.918;8.614;2023-02-19T02:21:47;22.40;;;13.68;;
77055;SDS011;67471;44.918;8.614;2023-02-19T02:32:10;23.55;;;13.13;;
77055;SDS011;67471;44.918;8.614;2023-02-19T02:35:19;24.50;;;14.05;;
77055;SDS011;67471;44.918;8.614;2023-02-19T02:41:34;23.17;;;13.32;;
77055;SDS011;67471;44.918;8.614;2023-02-19T02:44:44;21.15;;;13.10;;
77055;SDS011;67471;44.918;8.614;2023-02-19T02:48:29;20.23;;;13.02;;
77055;SDS011;67471;44.918;8.614;2023-02-19T02:51:49;26.35;;;16.25;;
77055;SDS011;67471;44.918;8.614;2023-02-19T02:54:58;25.08;;;13.73;;
77055;SDS011;67471;44.918;8.614;2023-02-19T02:58:05;20.58;;;14.07;;
77055;SDS011;67471;44.918;8.614;2023-02-19T03:01:11;25.40;;;13.45;;
77055;SDS011;67471;44.918;8.614;2023-02-19T03:08:28;23.80;;;13.50;;
77055;SDS011;67471;44.918;8.614;2023-02-19T03:15:08;20.13;;;12.63;;
77055;SDS011;67471;44.918;8.614;2023-02-19T03:18:31;21.30;;;12.98;;
77055;SDS011;67471;44.918;8.614;2023-02-19T03:22:02;26.20;;;13.88;;
77055;SDS011;67471;44.918;8.614;2023-02-19T03:25:24;23.48;;;14.07;;
77055;SDS011;67471;44.918;8.614;2023-02-19T03:28:51;19.85;;;12.80;;
77055;SDS011;67471;44.918;8.614;2023-02-19T03:32:23;25.17;;;13.88;;
77055;SDS011;67471;44.918;8.614;2023-02-19T03:35:40;20.52;;;12.50;;
77055;SDS011;67471;44.918;8.614;2023-02-19T03:38:57;23.15;;;12.73;;
77055;SDS011;67471;44.918;8.614;2023-02-19T03:42:16;23.63;;;14.20;;
77055;SDS011;67471;44.918;8.614;2023-02-19T03:45:30;26.42;;;14.40;;
77055;SDS011;67471;44.918;8.614;2023-02-19T03:48:53;25.52;;;15.02;;
77055;SDS011;67471;44.918;8.614;2023-02-19T03:58:58;28.05;;;14.68;;
77055;SDS011;67471;44.918;8.614;2023-02-19T04:02:26;22.95;;;14.05;;
77055;SDS011;67471;44.918;8.614;2023-02-19T04:05:36;27.92;;;14.00;;
77055;SDS011;67471;44.918;8.614;2023-02-19T04:08:46;21.90;;;13.65;;
77055;SDS011;67471;44.918;8.614;2023-02-19T04:11:53;24.67;;;14.57;;
77055;SDS011;67471;44.918;8.614;2023-02-19T04:15:02;28.38;;;16.13;;
77055;SDS011;67471;44.918;8.614;2023-02-19T04:18:11;24.30;;;14.95;;
77055;SDS011;67471;44.918;8.614;2023-02-19T04:24:32;26.45;;;15.27;;
77055;SDS011;67471;44.918;8.614;2023-02-19T04:27:40;29.30;;;16.00;;
77055;SDS011;67471;44.918;8.614;2023-02-19T04:30:46;23.67;;;14.23;;
77055;SDS011;67471;44.918;8.614;2023-02-19T04:33:50;31.70;;;16.45;;
77055;SDS011;67471;44.918;8.614;2023-02-19T04:36:54;24.95;;;15.30;;
77055;SDS011;67471;44.918;8.614;2023-02-19T04:39:58;30.05;;;17.73;;
77055;SDS011;67471;44.918;8.614;2023-02-19T04:43:01;29.00;;;16.90;;
77055;SDS011;67471;44.918;8.614;2023-02-19T04:46:05;28.45;;;14.82;;
77055;SDS011;67471;44.918;8.614;2023-02-19T04:49:09;26.90;;;14.60;;
77055;SDS011;67471;44.918;8.614;2023-02-19T04:52:13;24.90;;;15.20;;
77055;SDS011;67471;44.918;8.614;2023-02-19T04:55:16;32.33;;;14.80;;
77055;SDS011;67471;44.918;8.614;2023-02-19T04:58:20;29.17;;;14.63;;
77055;SDS011;67471;44.918;8.614;2023-02-19T05:01:24;25.25;;;14.43;;
77055;SDS011;67471;44.918;8.614;2023-02-19T05:04:28;24.95;;;14.48;;
77055;SDS011;67471;44.918;8.614;2023-02-19T05:07:32;22.85;;;14.05;;
77055;SDS011;67471;44.918;8.614;2023-02-19T05:10:36;26.08;;;14.52;;
77055;SDS011;67471;44.918;8.614;2023-02-19T05:13:40;24.23;;;14.60;;
77055;SDS011;67471;44.918;8.614;2023-02-19T05:17:02;21.90;;;14.32;;
77055;SDS011;67471;44.918;8.614;2023-02-19T05:20:06;25.73;;;14.65;;
77055;SDS011;67471;44.918;8.614;2023-02-19T05:23:10;22.90;;;13.23;;
77055;SDS011;67471;44.918;8.614;2023-02-19T05:26:15;23.23;;;13.80;;
77055;SDS011;67471;44.918;8.614;2023-02-19T05:29:20;26.63;;;15.68;;
77055;SDS011;67471;44.918;8.614;2023-02-19T05:32:24;25.90;;;14.70;;
77055;SDS011;67471;44.918;8.614;2023-02-19T05:35:28;23.75;;;14.27;;
77055;SDS011;67471;44.918;8.614;2023-02-19T05:38:32;23.73;;;14.48;;
77055;SDS011;67471;44.918;8.614;2023-02-19T05:41:35;25.88;;;14.73;;
77055;SDS011;67471;44.918;8.614;2023-02-19T05:44:41;25.83;;;14.25;;
77055;SDS011;67471;44.918;8.614;2023-02-19T05:47:45;23.27;;;13.38;;
77055;SDS011;67471;44.918;8.614;2023-02-19T05:50:49;25.98;;;13.40;;
77055;SDS011;67471;44.918;8.614;2023-02-19T05:53:53;22.73;;;13.10;;
77055;SDS011;67471;44.918;8.614;2023-02-19T05:56:58;23.35;;;14.63;;
77055;SDS011;67471;44.918;8.614;2023-02-19T06:00:02;30.38;;;16.95;;
77055;SDS011;67471;44.918;8.614;2023-02-19T06:03:15;27.70;;;15.32;;
77055;SDS011;67471;44.918;8.614;2023-02-19T06:06:19;27.80;;;17.50;;
77055;SDS011;67471;44.918;8.614;2023-02-19T06:09:23;27.52;;;16.80;;
77055;SDS011;67471;44.918;8.614;2023-02-19T06:12:27;28.67;;;16.60;;
77055;SDS011;67471;44.918;8.614;2023-02-19T06:15:31;29.05;;;16.88;;
77055;SDS011;67471;44.918;8.614;2023-02-19T06:18:35;29.52;;;16.77;;
77055;SDS011;67471;44.918;8.614;2023-02-19T06:21:38;27.48;;;16.67;;
77055;SDS011;67471;44.918;8.614;2023-02-19T06:24:42;25.95;;;17.02;;
77055;SDS011;67471;44.918;8.614;2023-02-19T06:27:46;30.55;;;17.85;;
77055;SDS011;67471;44.918;8.614;2023-02-19T06:30:50;27.67;;;17.17;;
77055;SDS011;67471;44.918;8.614;2023-02-19T06:33:54;29.35;;;17.63;;
77055;SDS011;67471;44.918;8.614;2023-02-19T06:36:58;30.35;;;17.55;;
77055;SDS011;67471;44.918;8.614;2023-02-19T06:40:02;27.48;;;16.40;;
77055;SDS011;67471;44.918;8.614;2023-02-19T06:43:06;27.38;;;17.33;;
77055;SDS011;67471;44.918;8.614;2023-02-19T06:46:11;31.42;;;17.95;;
77055;SDS011;67471;44.918;8.614;2023-02-19T06:49:15;31.17;;;16.30;;
77055;SDS011;67471;44.918;8.614;2023-02-19T06:52:19;33.25;;;16.33;;
77055;SDS011;67471;44.918;8.614;2023-02-19T06:55:23;26.17;;;16.50;;
77055;SDS011;67471;44.918;8.614;2023-02-19T06:58:26;26.10;;;16.58;;
77055;SDS011;67471;44.918;8.614;2023-02-19T07:01:31;28.95;;;17.75;;
77055;SDS011;67471;44.918;8.614;2023-02-19T07:04:36;29.20;;;17.48;;
77055;SDS011;67471;44.918;8.614;2023-02-19T07:07:40;30.77;;;17.42;;
77055;SDS011;67471;44.918;8.614;2023-02-19T07:10:44;25.27;;;16.60;;
77055;SDS011;67471;44.918;8.614;2023-02-19T07:13:52;28.80;;;17.75;;
77055;SDS011;67471;44.918;8.614;2023-02-19T07:17:00;34.83;;;21.50;;
77055;SDS011;67471;44.918;8.614;2023-02-19T07:20:03;32.80;;;19.02;;
77055;SDS011;67471;44.918;8.614;2023-02-19T07:23:07;29.15;;;16.98;;
77055;SDS011;67471;44.918;8.614;2023-02-19T07:26:12;28.23;;;17.50;;
77055;SDS011;67471;44.918;8.614;2023-02-19T07:29:20;28.30;;;18.00;;
77055;SDS011;67471;44.918;8.614;2023-02-19T07:32:24;28.55;;;17.05;;
77055;SDS011;67471;44.918;8.614;2023-02-19T07:35:27;27.58;;;17.40;;
77055;SDS011;67471;44.918;8.614;2023-02-19T07:38:31;27.33;;;17.70;;
77055;SDS011;67471;44.918;8.614;2023-02-19T07:41:35;28.45;;;16.70;;
77055;SDS011;67471;44.918;8.614;2023-02-19T07:44:38;26.55;;;17.25;;
77055;SDS011;67471;44.918;8.614;2023-02-19T07:47:42;29.80;;;18.02;;
77055;SDS011;67471;44.918;8.614;2023-02-19T07:50:56;33.03;;;18.52;;
77055;SDS011;67471;44.918;8.614;2023-02-19T07:54:02;29.63;;;18.33;;
77055;SDS011;67471;44.918;8.614;2023-02-19T07:57:05;29.75;;;17.70;;
77055;SDS011;67471;44.918;8.614;2023-02-19T08:00:09;28.70;;;17.23;;
77055;SDS011;67471;44.918;8.614;2023-02-19T08:03:16;30.70;;;16.98;;
77055;SDS011;67471;44.918;8.614;2023-02-19T08:06:19;31.85;;;18.38;;
77055;SDS011;67471;44.918;8.614;2023-02-19T08:09:23;30.85;;;18.13;;
77055;SDS011;67471;44.918;8.614;2023-02-19T08:12:27;30.35;;;17.55;;
77055;SDS011;67471;44.918;8.614;2023-02-19T08:18:54;26.88;;;16.90;;
77055;SDS011;67471;44.918;8.614;2023-02-19T08:21:58;29.58;;;17.35;;
77055;SDS011;67471;44.918;8.614;2023-02-19T08:25:02;28.73;;;17.67;;
77055;SDS011;67471;44.918;8.614;2023-02-19T08:28:07;27.27;;;17.77;;
77055;SDS011;67471;44.918;8.614;2023-02-19T08:31:12;30.15;;;18.55;;
77055;SDS011;67471;44.918;8.614;2023-02-19T08:34:16;29.33;;;18.00;;
77055;SDS011;67471;44.918;8.614;2023-02-19T08:37:20;27.83;;;17.08;;
77055;SDS011;67471;44.918;8.614;2023-02-19T08:40:24;29.42;;;16.63;;
77055;SDS011;67471;44.918;8.614;2023-02-19T08:43:29;30.42;;;18.58;;
77055;SDS011;67471;44.918;8.614;2023-02-19T08:46:32;32.45;;;17.52;;
77055;SDS011;67471;44.918;8.614;2023-02-19T08:49:37;33.00;;;18.73;;
77055;SDS011;67471;44.918;8.614;2023-02-19T08:52:41;32.13;;;18.27;;
77055;SDS011;67471;44.918;8.614;2023-02-19T08:55:45;27.77;;;17.67;;
77055;SDS011;67471;44.918;8.614;2023-02-19T08:58:49;32.28;;;19.50;;
77055;SDS011;67471;44.918;8.614;2023-02-19T09:01:53;29.10;;;18.58;;
77055;SDS011;67471;44.918;8.614;2023-02-19T09:04:57;32.13;;;18.50;;
77055;SDS011;67471;44.918;8.614;2023-02-19T09:08:01;29.80;;;18.08;;
77055;SDS011;67471;44.918;8.614;2023-02-19T09:11:05;32.05;;;17.92;;
77055;SDS011;67471;44.918;8.614;2023-02-19T09:14:09;28.80;;;16.85;;
77055;SDS011;67471;44.918;8.614;2023-02-19T09:17:13;28.75;;;17.55;;
77055;SDS011;67471;44.918;8.614;2023-02-19T09:20:16;33.60;;;19.65;;
77055;SDS011;67471;44.918;8.614;2023-02-19T09:23:20;31.90;;;18.08;;
77055;SDS011;67471;44.918;8.614;2023-02-19T09:26:24;26.65;;;16.48;;
77055;SDS011;67471;44.918;8.614;2023-02-19T09:29:28;25.85;;;16.83;;
77055;SDS011;67471;44.918;8.614;2023-02-19T09:32:32;25.38;;;18.00;;
77055;SDS011;67471;44.918;8.614;2023-02-19T09:35:37;29.80;;;18.17;;
77055;SDS011;67471;44.918;8.614;2023-02-19T09:38:42;27.15;;;17.80;;
77055;SDS011;67471;44.918;8.614;2023-02-19T09:44:52;31.90;;;18.67;;
77055;SDS011;67471;44.918;8.614;2023-02-19T09:47:58;25.33;;;16.80;;
77055;SDS011;67471;44.918;8.614;2023-02-19T09:51:02;27.67;;;18.92;;
77055;SDS011;67471;44.918;8.614;2023-02-19T09:54:09;30.67;;;18.65;;
77055;SDS011;67471;44.918;8.614;2023-02-19T09:57:20;25.77;;;17.92;;
77055;SDS011;67471;44.918;8.614;2023-02-19T10:00:24;27.92;;;19.77;;
77055;SDS011;67471;44.918;8.614;2023-02-19T10:03:31;29.45;;;18.88;;
77055;SDS011;67471;44.918;8.614;2023-02-19T10:06:37;29.58;;;19.05;;
77055;SDS011;67471;44.918;8.614;2023-02-19T10:09:44;29.70;;;19.02;;
77055;SDS011;67471;44.918;8.614;2023-02-19T10:15:57;32.03;;;20.48;;
77055;SDS011;67471;44.918;8.614;2023-02-19T10:19:02;31.45;;;22.50;;
77055;SDS011;67471;44.918;8.614;2023-02-19T10:22:07;35.63;;;23.85;;
77055;SDS011;67471;44.918;8.614;2023-02-19T10:25:14;42.15;;;23.50;;
77055;SDS011;67471;44.918;8.614;2023-02-19T10:28:20;33.78;;;21.13;;
77055;SDS011;67471;44.918;8.614;2023-02-19T10:31:26;30.00;;;20.67;;
77055;SDS011;67471;44.918;8.614;2023-02-19T10:34:30;29.83;;;19.60;;
77055;SDS011;67471;44.918;8.614;2023-02-19T10:37:34;27.38;;;18.58;;
77055;SDS011;67471;44.918;8.614;2023-02-19T10:40:38;28.85;;;18.55;;
77055;SDS011;67471;44.918;8.614;2023-02-19T10:47:16;28.30;;;17.90;;
77055;SDS011;67471;44.918;8.614;2023-02-19T10:50:33;27.15;;;18.88;;
77055;SDS011;67471;44.918;8.614;2023-02-19T10:53:49;27.83;;;18.17;;
77055;SDS011;67471;44.918;8.614;2023-02-19T11:00:21;32.65;;;20.90;;
77055;SDS011;67471;44.918;8.614;2023-02-19T11:03:32;33.15;;;19.23;;
77055;SDS011;67471;44.918;8.614;2023-02-19T11:06:36;26.80;;;18.42;;
77055;SDS011;67471;44.918;8.614;2023-02-19T11:09:41;28.05;;;19.05;;
77055;SDS011;67471;44.918;8.614;2023-02-19T11:12:48;26.95;;;19.63;;
77055;SDS011;67471;44.918;8.614;2023-02-19T11:15:53;32.10;;;18.67;;
77055;SDS011;67471;44.918;8.614;2023-02-19T11:18:57;26.55;;;17.50;;
77055;SDS011;67471;44.918;8.614;2023-02-19T11:22:02;28.63;;;17.80;;
77055;SDS011;67471;44.918;8.614;2023-02-19T11:25:21;25.40;;;17.25;;
77055;SDS011;67471;44.918;8.614;2023-02-19T11:28:30;23.27;;;16.02;;
77055;SDS011;67471;44.918;8.614;2023-02-19T11:31:34;24.58;;;15.50;;
77055;SDS011;67471;44.918;8.614;2023-02-19T11:34:38;21.35;;;15.18;;
77055;SDS011;67471;44.918;8.614;2023-02-19T11:37:56;20.25;;;15.15;;
77055;SDS011;67471;44.918;8.614;2023-02-19T12:46:27;13.93;;;11.23;;
77055;SDS011;67471;44.918;8.614;2023-02-19T12:52:42;18.58;;;12.00;;
77055;SDS011;67471;44.918;8.614;2023-02-19T12:55:48;15.93;;;11.77;;
77055;SDS011;67471;44.918;8.614;2023-02-19T12:58:54;15.50;;;11.25;;
77055;SDS011;67471;44.918;8.614;2023-02-19T13:02:16;14.65;;;11.18;;
77055;SDS011;67471;44.918;8.614;2023-02-19T13:08:48;9.15;;;5.95;;
77055;SDS011;67471;44.918;8.614;2023-02-19T13:12:00;7.10;;;4.45;;
77055;SDS011;67471;44.918;8.614;2023-02-19T13:15:28;6.32;;;4.57;;
77055;SDS011;67471;44.918;8.614;2023-02-19T13:18:40;6.93;;;4.10;;
77055;SDS011;67471;44.918;8.614;2023-02-19T13:29:08;7.15;;;4.55;;
77055;SDS011;67471;44.918;8.614;2023-02-19T13:32:19;5.10;;;3.63;;
77055;SDS011;67471;44.918;8.614;2023-02-19T13:39:11;6.78;;;3.90;;
77055;SDS011;67471;44.918;8.614;2023-02-19T13:42:26;5.70;;;4.30;;
77055;SDS011;67471;44.918;8.614;2023-02-19T13:45:38;5.57;;;3.90;;
77055;SDS011;67471;44.918;8.614;2023-02-19T13:48:44;6.20;;;3.58;;
77055;SDS011;67471;44.918;8.614;2023-02-19T13:51:49;5.68;;;4.53;;
77055;SDS011;67471;44.918;8.614;2023-02-19T13:58:36;6.88;;;5.10;;
77055;SDS011;67471;44.918;8.614;2023-02-19T14:08:02;10.05;;;5.50;;
77055;SDS011;67471;44.918;8.614;2023-02-19T14:11:06;6.93;;;4.85;;
77055;SDS011;67471;44.918;8.614;2023-02-19T14:20:45;6.60;;;4.70;;
77055;SDS011;67471;44.918;8.614;2023-02-19T14:23:55;8.18;;;4.90;;
77055;SDS011;67471;44.918;8.614;2023-02-19T14:27:00;9.75;;;4.20;;
77055;SDS011;67471;44.918;8.614;2023-02-19T14:30:04;8.05;;;5.35;;
77055;SDS011;67471;44.918;8.614;2023-02-19T14:33:09;8.50;;;4.35;;
77055;SDS011;67471;44.918;8.614;2023-02-19T14:39:36;7.30;;;4.82;;
77055;SDS011;67471;44.918;8.614;2023-02-19T14:42:41;13.38;;;5.80;;
77055;SDS011;67471;44.918;8.614;2023-02-19T14:46:28;10.45;;;5.20;;
77055;SDS011;67471;44.918;8.614;2023-02-19T14:52:42;9.30;;;5.57;;
77055;SDS011;67471;44.918;8.614;2023-02-19T14:55:50;9.02;;;5.90;;
77055;SDS011;67471;44.918;8.614;2023-02-19T15:02:16;8.88;;;6.00;;
77055;SDS011;67471;44.918;8.614;2023-02-19T15:05:24;9.90;;;5.85;;
77055;SDS011;67471;44.918;8.614;2023-02-19T15:08:31;12.55;;;6.82;;
77055;SDS011;67471;44.918;8.614;2023-02-19T15:11:37;8.50;;;5.95;;
77055;SDS011;67471;44.918;8.614;2023-02-19T15:14:45;8.17;;;5.13;;
77055;SDS011;67471;44.918;8.614;2023-02-19T15:17:51;7.03;;;4.97;;
77055;SDS011;67471;44.918;8.614;2023-02-19T15:20:57;7.65;;;5.13;;
77055;SDS011;67471;44.918;8.614;2023-02-19T15:24:04;8.88;;;5.20;;
77055;SDS011;67471;44.918;8.614;2023-02-19T15:27:16;8.88;;;5.68;;
77055;SDS011;67471;44.918;8.614;2023-02-19T15:30:23;7.38;;;5.13;;
77055;SDS011;67471;44.918;8.614;2023-02-19T15:33:30;11.93;;;5.10;;
77055;SDS011;67471;44.918;8.614;2023-02-19T15:36:34;7.45;;;5.05;;
77055;SDS011;67471;44.918;8.614;2023-02-19T15:39:39;8.00;;;4.95;;
77055;SDS011;67471;44.918;8.614;2023-02-19T15:42:46;10.20;;;5.60;;
77055;SDS011;67471;44.918;8.614;2023-02-19T15:45:50;12.80;;;4.93;;
77055;SDS011;67471;44.918;8.614;2023-02-19T15:48:59;10.30;;;5.32;;
77055;SDS011;67471;44.918;8.614;2023-02-19T15:52:09;6.70;;;5.07;;
77055;SDS011;67471;44.918;8.614;2023-02-19T15:58:39;9.43;;;5.55;;
77055;SDS011;67471;44.918;8.614;2023-02-19T16:01:49;8.02;;;5.30;;
77055;SDS011;67471;44.918;8.614;2023-02-19T16:04:54;8.25;;;5.47;;
77055;SDS011;67471;44.918;8.614;2023-02-19T16:08:33;8.55;;;5.80;;
77055;SDS011;67471;44.918;8.614;2023-02-19T16:11:37;10.88;;;5.03;;
77055;SDS011;67471;44.918;8.614;2023-02-19T16:14:42;9.45;;;4.75;;
77055;SDS011;67471;44.918;8.614;2023-02-19T16:17:46;11.32;;;5.00;;
77055;SDS011;67471;44.918;8.614;2023-02-19T16:20:50;9.27;;;5.10;;
77055;SDS011;67471;44.918;8.614;2023-02-19T16:23:58;7.90;;;4.78;;
77055;SDS011;67471;44.918;8.614;2023-02-19T16:27:06;8.60;;;5.10;;
77055;SDS011;67471;44.918;8.614;2023-02-19T16:33:31;10.98;;;4.95;;
77055;SDS011;67471;44.918;8.614;2023-02-19T16:36:42;7.90;;;4.28;;
77055;SDS011;67471;44.918;8.614;2023-02-19T16:39:49;8.63;;;5.30;;
77055;SDS011;67471;44.918;8.614;2023-02-19T16:43:22;8.77;;;4.53;;
77055;SDS011;67471;44.918;8.614;2023-02-19T16:46:33;11.68;;;4.70;;
77055;SDS011;67471;44.918;8.614;2023-02-19T16:49:37;15.90;;;5.57;;
77055;SDS011;67471;44.918;8.614;2023-02-19T16:52:54;14.05;;;6.60;;
77055;SDS011;67471;44.918;8.614;2023-02-19T16:55:59;10.18;;;6.97;;
77055;SDS011;67471;44.918;8.614;2023-02-19T16:59:03;10.57;;;6.03;;
77055;SDS011;67471;44.918;8.614;2023-02-19T17:02:07;10.35;;;6.20;;
77055;SDS011;67471;44.918;8.614;2023-02-19T17:05:19;11.45;;;6.13;;
77055;SDS011;67471;44.918;8.614;2023-02-19T17:08:28;13.02;;;5.97;;
77055;SDS011;67471;44.918;8.614;2023-02-19T17:11:36;12.60;;;6.25;;
77055;SDS011;67471;44.918;8.614;2023-02-19T17:14:40;10.25;;;6.75;;
77055;SDS011;67471;44.918;8.614;2023-02-19T17:17:44;11.63;;;6.68;;
77055;SDS011;67471;44.918;8.614;2023-02-19T17:21:33;9.38;;;6.18;;
77055;SDS011;67471;44.918;8.614;2023-02-19T17:24:17;12.82;;;6.88;;
77055;SDS011;67471;44.918;8.614;2023-02-19T17:27:21;11.02;;;6.28;;
77055;SDS011;67471;44.918;8.614;2023-02-19T17:30:29;10.40;;;6.05;;
77055;SDS011;67471;44.918;8.614;2023-02-19T17:33:34;11.55;;;6.43;;
77055;SDS011;67471;44.918;8.614;2023-02-19T17:36:38;13.63;;;7.28;;
77055;SDS011;67471;44.918;8.614;2023-02-19T17:39:42;14.25;;;6.55;;
77055;SDS011;67471;44.918;8.614;2023-02-19T17:42:46;13.38;;;6.75;;
77055;SDS011;67471;44.918;8.614;2023-02-19T17:45:50;13.23;;;7.30;;
77055;SDS011;67471;44.918;8.614;2023-02-19T17:48:54;10.98;;;6.97;;
77055;SDS011;67471;44.918;8.614;2023-02-19T17:51:58;10.88;;;6.50;;
77055;SDS011;67471;44.918;8.614;2023-02-19T17:55:02;12.18;;;7.20;;
77055;SDS011;67471;44.918;8.614;2023-02-19T17:58:06;15.30;;;7.03;;
77055;SDS011;67471;44.918;8.614;2023-02-19T18:01:09;13.95;;;7.90;;
77055;SDS011;67471;44.918;8.614;2023-02-19T18:04:13;10.90;;;6.95;;
77055;SDS011;67471;44.918;8.614;2023-02-19T18:07:17;12.60;;;7.65;;
77055;SDS011;67471;44.918;8.614;2023-02-19T18:10:21;14.82;;;8.57;;
77055;SDS011;67471;44.918;8.614;2023-02-19T18:13:25;11.52;;;6.65;;
77055;SDS011;67471;44.918;8.614;2023-02-19T18:16:54;12.20;;;7.10;;
77055;SDS011;67471;44.918;8.614;2023-02-19T18:19:58;11.98;;;7.63;;
77055;SDS011;67471;44.918;8.614;2023-02-19T18:23:02;17.50;;;7.93;;
77055;SDS011;67471;44.918;8.614;2023-02-19T18:26:06;12.98;;;8.23;;
77055;SDS011;67471;44.918;8.614;2023-02-19T18:29:12;14.68;;;8.13;;
77055;SDS011;67471;44.918;8.614;2023-02-19T18:32:16;11.75;;;7.50;;
77055;SDS011;67471;44.918;8.614;2023-02-19T18:35:21;12.27;;;8.20;;
77055;SDS011;67471;44.918;8.614;2023-02-19T18:38:25;16.85;;;9.02;;
77055;SDS011;67471;44.918;8.614;2023-02-19T18:41:29;10.52;;;7.30;;
77055;SDS011;67471;44.918;8.614;2023-02-19T18:44:33;13.63;;;8.75;;
77055;SDS011;67471;44.918;8.614;2023-02-19T18:47:37;18.13;;;9.77;;
77055;SDS011;67471;44.918;8.614;2023-02-19T18:50:41;13.07;;;9.30;;
77055;SDS011;67471;44.918;8.614;2023-02-19T18:53:44;15.20;;;9.35;;
77055;SDS011;67471;44.918;8.614;2023-02-19T18:56:48;17.30;;;10.95;;
77055;SDS011;67471;44.918;8.614;2023-02-19T18:59:53;16.30;;;10.10;;
77055;SDS011;67471;44.918;8.614;2023-02-19T19:02:57;18.30;;;10.35;;
77055;SDS011;67471;44.918;8.614;2023-02-19T19:06:02;17.83;;;10.13;;
77055;SDS011;67471;44.918;8.614;2023-02-19T19:09:05;15.68;;;9.88;;
77055;SDS011;67471;44.918;8.614;2023-02-19T19:12:09;18.85;;;11.15;;
77055;SDS011;67471;44.918;8.614;2023-02-19T19:15:14;17.27;;;9.40;;
77055;SDS011;67471;44.918;8.614;2023-02-19T19:18:18;16.50;;;8.82;;
77055;SDS011;67471;44.918;8.614;2023-02-19T19:21:22;12.93;;;8.63;;
77055;SDS011;67471;44.918;8.614;2023-02-19T19:24:25;18.50;;;10.25;;
77055;SDS011;67471;44.918;8.614;2023-02-19T19:27:29;14.05;;;8.20;;
77055;SDS011;67471;44.918;8.614;2023-02-19T19:30:33;16.85;;;8.68;;
77055;SDS011;67471;44.918;8.614;2023-02-19T19:33:37;15.57;;;9.10;;
77055;SDS011;67471;44.918;8.614;2023-02-19T19:36:42;13.80;;;8.55;;
77055;SDS011;67471;44.918;8.614;2023-02-19T19:39:45;13.77;;;9.23;;
77055;SDS011;67471;44.918;8.614;2023-02-19T19:42:50;14.00;;;8.63;;
77055;SDS011;67471;44.918;8.614;2023-02-19T19:45:55;16.27;;;8.65;;
77055;SDS011;67471;44.918;8.614;2023-02-19T19:48:59;16.90;;;8.95;;
77055;SDS011;67471;44.918;8.614;2023-02-19T19:52:03;15.68;;;9.85;;
77055;SDS011;67471;44.918;8.614;2023-02-19T19:55:06;15.45;;;9.18;;
77055;SDS011;67471;44.918;8.614;2023-02-19T19:58:11;14.38;;;8.80;;
77055;SDS011;67471;44.918;8.614;2023-02-19T20:01:14;16.52;;;9.25;;
77055;SDS011;67471;44.918;8.614;2023-02-19T20:04:23;15.10;;;9.95;;
77055;SDS011;67471;44.918;8.614;2023-02-19T20:07:28;16.77;;;9.93;;
77055;SDS011;67471;44.918;8.614;2023-02-19T20:10:32;17.20;;;9.82;;
77055;SDS011;67471;44.918;8.614;2023-02-19T20:13:36;15.40;;;9.68;;
77055;SDS011;67471;44.918;8.614;2023-02-19T20:16:40;19.52;;;10.73;;
77055;SDS011;67471;44.918;8.614;2023-02-19T20:19:44;21.00;;;11.73;;
77055;SDS011;67471;44.918;8.614;2023-02-19T20:22:48;19.42;;;10.90;;
77055;SDS011;67471;44.918;8.614;2023-02-19T20:25:57;16.67;;;11.50;;
77055;SDS011;67471;44.918;8.614;2023-02-19T20:29:00;21.13;;;11.07;;
77055;SDS011;67471;44.918;8.614;2023-02-19T20:32:06;15.80;;;10.63;;
77055;SDS011;67471;44.918;8.614;2023-02-19T20:35:10;20.35;;;11.52;;
77055;SDS011;67471;44.918;8.614;2023-02-19T20:38:14;15.27;;;10.07;;
77055;SDS011;67471;44.918;8.614;2023-02-19T20:41:18;17.95;;;10.90;;
77055;SDS011;67471;44.918;8.614;2023-02-19T20:44:23;16.45;;;10.88;;
77055;SDS011;67471;44.918;8.614;2023-02-19T20:47:27;24.73;;;12.65;;
77055;SDS011;67471;44.918;8.614;2023-02-19T20:50:31;20.27;;;12.45;;
77055;SDS011;67471;44.918;8.614;2023-02-19T20:53:35;17.42;;;11.00;;
77055;SDS011;67471;44.918;8.614;2023-02-19T20:56:44;22.13;;;12.48;;
77055;SDS011;67471;44.918;8.614;2023-02-19T20:59:51;19.17;;;11.18;;
77055;SDS011;67471;44.918;8.614;2023-02-19T21:02:55;20.05;;;11.85;;
77055;SDS011;67471;44.918;8.614;2023-02-19T21:05:59;20.13;;;11.98;;